Time;durP1;ratioP1;P1;durP2;ratioP2;P2;SDS_P1;SDS_P2;PMS_P1;PMS_P2;Temp;Humidity;BMP_temperature;BMP_pressure;BME280_temperature;BME280_humidity;BME280_pressure;Samples;Min_cycle;Max_cycle;Signal;HPM_P1;HPM_P2
2023/09/08 00:02:05;;;;;;;9.88;8.02;;;;;;;;;;6306280;28;20947;-73
2023/09/08 00:05:07;;;;;;;10.32;7.80;;;;;;;;;;6328375;28;20039;-72
2023/09/08 00:08:09;;;;;;;8.80;5.93;;;;;;;;;;6334111;28;20066;-73
2023/09/08 00:11:11;;;;;;;10.95;8.70;;;;;;;;;;6332797;28;20729;-71
2023/09/08 00:14:13;;;;;;;10.07;8.93;;;;;;;;;;6333170;28;20055;-72
2023/09/08 00:17:15;;;;;;;8.90;5.72;;;;;;;;;;6334899;28;20082;-72
2023/09/08 00:20:17;;;;;;;9.65;7.53;;;;;;;;;;6325286;28;20119;-72
2023/09/08 00:23:19;;;;;;;12.15;8.20;;;;;;;;;;6337903;28;20055;-72
2023/09/08 00:26:21;;;;;;;9.10;5.68;;;;;;;;;;6334297;28;20534;-72
2023/09/08 00:29:24;;;;;;;11.18;5.20;;;;;;;;;;6327906;28;20047;-72
2023/09/08 00:32:26;;;;;;;10.38;7.95;;;;;;;;;;6326925;28;20050;-72
2023/09/08 00:35:28;;;;;;;9.55;6.03;;;;;;;;;;6324241;28;20665;-73
2023/09/08 00:38:31;;;;;;;14.25;9.07;;;;;;;;;;6301802;28;20043;-72
2023/09/08 00:41:34;;;;;;;9.60;8.50;;;;;;;;;;6329269;28;20040;-72
2023/09/08 00:44:37;;;;;;;9.55;6.15;;;;;;;;;;6328131;28;20043;-73
2023/09/08 00:47:39;;;;;;;9.45;8.23;;;;;;;;;;6332618;28;20043;-73
2023/09/08 00:50:41;;;;;;;10.25;8.20;;;;;;;;;;6333227;28;20113;-73
2023/09/08 00:53:45;;;;;;;8.32;7.00;;;;;;;;;;6329596;28;20043;-72
2023/09/08 00:56:49;;;;;;;8.23;5.68;;;;;;;;;;6331530;28;20051;-72
2023/09/08 00:59:51;;;;;;;8.60;5.25;;;;;;;;;;6338433;28;20055;-72
2023/09/08 01:02:53;;;;;;;8.50;7.53;;;;;;;;;;6318851;28;20046;-73
2023/09/08 01:05:55;;;;;;;11.23;5.55;;;;;;;;;;6337772;28;20039;-73
2023/09/08 01:08:59;;;;;;;9.60;8.57;;;;;;;;;;6322359;28;20569;-73
2023/09/08 01:12:06;;;;;;;10.77;5.93;;;;;;;;;;6330948;28;20059;-73
2023/09/08 01:15:08;;;;;;;9.68;8.40;;;;;;;;;;6302395;28;20051;-73
2023/09/08 01:18:11;;;;;;;10.65;7.30;;;;;;;;;;6335699;28;20841;-72
2023/09/08 01:21:13;;;;;;;10.07;8.05;;;;;;;;;;6329237;28;20461;-72
2023/09/08 01:24:47;;;;;;;10.05;5.78;;;;;;;;;;6332309;28;20127;-72
2023/09/08 01:27:52;;;;;;;10.27;7.82;;;;;;;;;;6330244;28;20051;-72
2023/09/08 01:30:55;;;;;;;10.85;6.60;;;;;;;;;;6338132;28;20192;-72
2023/09/08 01:34:00;;;;;;;8.70;5.88;;;;;;;;;;6305368;28;20734;-72
2023/09/08 01:37:04;;;;;;;9.80;5.85;;;;;;;;;;6333384;28;20064;-72
2023/09/08 01:40:06;;;;;;;10.15;9.05;;;;;;;;;;6336988;28;20518;-72
2023/09/08 01:43:08;;;;;;;9.40;5.88;;;;;;;;;;6323662;28;20074;-72
2023/09/08 01:46:10;;;;;;;11.55;10.45;;;;;;;;;;6333523;28;20060;-73
2023/09/08 01:49:12;;;;;;;9.65;6.70;;;;;;;;;;6327740;28;20043;-72
2023/09/08 01:52:14;;;;;;;10.95;8.18;;;;;;;;;;6331970;28;20055;-72
2023/09/08 01:55:16;;;;;;;10.55;9.45;;;;;;;;;;6333657;28;20044;-73
2023/09/08 01:58:19;;;;;;;10.57;8.65;;;;;;;;;;6333920;28;20619;-72
2023/09/08 02:01:21;;;;;;;9.82;8.50;;;;;;;;;;6322351;28;20077;-72
2023/09/08 02:04:23;;;;;;;14.00;6.05;;;;;;;;;;6327631;28;20687;-72
2023/09/08 02:07:25;;;;;;;9.32;8.30;;;;;;;;;;6327363;28;20053;-72
2023/09/08 02:10:27;;;;;;;9.43;6.93;;;;;;;;;;6337410;28;20047;-72
2023/09/08 02:13:29;;;;;;;11.52;9.50;;;;;;;;;;6331419;28;20526;-71
2023/09/08 02:16:32;;;;;;;13.15;6.82;;;;;;;;;;6331715;28;20051;-74
2023/09/08 02:19:35;;;;;;;9.00;6.45;;;;;;;;;;6329491;28;20134;-71
2023/09/08 02:22:37;;;;;;;13.05;11.57;;;;;;;;;;6328988;28;20239;-72
2023/09/08 02:25:39;;;;;;;11.48;9.68;;;;;;;;;;6335837;28;20055;-72
2023/09/08 02:28:41;;;;;;;12.00;9.88;;;;;;;;;;6319805;28;20524;-72
2023/09/08 02:31:44;;;;;;;13.90;10.40;;;;;;;;;;6334295;28;20047;-72
2023/09/08 02:34:48;;;;;;;10.13;7.13;;;;;;;;;;6316999;28;20039;-71
2023/09/08 02:37:51;;;;;;;13.27;10.40;;;;;;;;;;6320174;28;20047;-71
2023/09/08 02:40:54;;;;;;;11.63;7.40;;;;;;;;;;6334556;28;20052;-74
2023/09/08 02:43:56;;;;;;;11.93;7.57;;;;;;;;;;6310917;28;20075;-72
2023/09/08 02:46:59;;;;;;;11.23;9.63;;;;;;;;;;6336875;28;20047;-73
2023/09/08 02:50:03;;;;;;;12.45;11.13;;;;;;;;;;6326377;28;20165;-73
2023/09/08 02:53:07;;;;;;;11.93;8.48;;;;;;;;;;6335057;28;20043;-73
2023/09/08 02:56:09;;;;;;;12.30;10.38;;;;;;;;;;6338740;28;20441;-72
2023/09/08 02:59:11;;;;;;;11.48;8.15;;;;;;;;;;6330709;28;20633;-73
2023/09/08 03:02:14;;;;;;;12.25;10.82;;;;;;;;;;6338657;28;20067;-73
2023/09/08 03:05:16;;;;;;;12.98;11.68;;;;;;;;;;6330902;28;20043;-73
2023/09/08 03:08:19;;;;;;;11.88;10.48;;;;;;;;;;6320381;28;20051;-72
2023/09/08 03:11:22;;;;;;;13.88;12.40;;;;;;;;;;6339311;28;20118;-72
2023/09/08 03:14:24;;;;;;;15.75;11.48;;;;;;;;;;6335123;28;20506;-72
2023/09/08 03:17:27;;;;;;;15.05;10.57;;;;;;;;;;6334360;28;20099;-72
2023/09/08 03:20:29;;;;;;;12.93;9.38;;;;;;;;;;6337464;28;20514;-72
2023/09/08 03:23:31;;;;;;;14.55;10.68;;;;;;;;;;6325687;28;20469;-73
2023/09/08 03:26:33;;;;;;;13.35;11.98;;;;;;;;;;6328577;28;20046;-72
2023/09/08 03:29:36;;;;;;;19.45;13.55;;;;;;;;;;6323618;28;20526;-74
2023/09/08 03:32:38;;;;;;;15.38;13.63;;;;;;;;;;6330105;28;20051;-72
2023/09/08 03:35:40;;;;;;;15.18;12.60;;;;;;;;;;6337461;28;20086;-72
2023/09/08 03:38:43;;;;;;;13.45;9.02;;;;;;;;;;6339427;28;20110;-73
2023/09/08 03:41:45;;;;;;;12.30;9.30;;;;;;;;;;6336166;28;20136;-73
2023/09/08 03:44:47;;;;;;;12.38;9.32;;;;;;;;;;6332319;28;20517;-71
2023/09/08 03:47:50;;;;;;;16.35;13.70;;;;;;;;;;6335578;28;20050;-72
2023/09/08 03:50:52;;;;;;;16.58;13.10;;;;;;;;;;6319092;28;20040;-72
2023/09/08 03:53:54;;;;;;;16.23;12.85;;;;;;;;;;6335919;28;20066;-73
2023/09/08 03:56:56;;;;;;;12.43;8.75;;;;;;;;;;6315941;28;20032;-73
2023/09/08 04:00:00;;;;;;;13.57;9.10;;;;;;;;;;6325799;28;20032;-72
2023/09/08 04:03:03;;;;;;;11.73;9.15;;;;;;;;;;6334650;28;20517;-72
2023/09/08 04:06:05;;;;;;;11.13;9.00;;;;;;;;;;6330806;28;20130;-73
2023/09/08 04:09:07;;;;;;;12.57;8.07;;;;;;;;;;6319094;28;20048;-72
2023/09/08 04:12:11;;;;;;;13.35;11.95;;;;;;;;;;6321531;28;20047;-72
2023/09/08 04:15:13;;;;;;;14.10;9.43;;;;;;;;;;6321862;28;20050;-72
2023/09/08 04:18:15;;;;;;;14.57;10.50;;;;;;;;;;6329007;28;20048;-72
2023/09/08 04:21:17;;;;;;;16.52;9.55;;;;;;;;;;6324740;28;20527;-72
2023/09/08 04:24:19;;;;;;;13.02;9.48;;;;;;;;;;6330336;28;20054;-73
2023/09/08 04:27:22;;;;;;;14.90;9.60;;;;;;;;;;6321171;28;20102;-74
2023/09/08 04:30:24;;;;;;;16.48;10.05;;;;;;;;;;6325698;28;20735;-72
2023/09/08 04:33:26;;;;;;;13.48;9.32;;;;;;;;;;6330772;28;20125;-72
2023/09/08 04:36:30;;;;;;;13.23;10.07;;;;;;;;;;6322306;28;20048;-73
2023/09/08 04:39:33;;;;;;;15.30;9.63;;;;;;;;;;6326748;28;20044;-72
2023/09/08 04:42:36;;;;;;;16.98;12.20;;;;;;;;;;6333790;28;20701;-72
2023/09/08 04:45:39;;;;;;;17.08;10.40;;;;;;;;;;6336555;28;20565;-73
2023/09/08 04:48:43;;;;;;;17.98;10.93;;;;;;;;;;6332747;28;20060;-71
2023/09/08 04:51:45;;;;;;;14.20;10.55;;;;;;;;;;6323657;28;20035;-71
2023/09/08 04:54:51;;;;;;;18.42;10.90;;;;;;;;;;6311662;28;20047;-72
2023/09/08 04:57:53;;;;;;;14.60;10.65;;;;;;;;;;6329625;28;20046;-72
2023/09/08 05:00:56;;;;;;;17.35;10.85;;;;;;;;;;6322725;28;20047;-72
2023/09/08 05:03:59;;;;;;;17.70;10.68;;;;;;;;;;6325606;28;20514;-72
2023/09/08 05:07:02;;;;;;;18.05;11.13;;;;;;;;;;6312922;28;20126;-72
2023/09/08 05:10:04;;;;;;;16.90;13.02;;;;;;;;;;6323742;28;20277;-73
2023/09/08 05:13:09;;;;;;;17.90;10.45;;;;;;;;;;6318098;28;20123;-74
2023/09/08 05:16:45;;;;;;;16.50;10.27;;;;;;;;;;6317577;28;20073;-70
2023/09/08 05:19:51;;;;;;;13.40;10.20;;;;;;;;;;6290614;28;20227;-71
2023/09/08 05:22:53;;;;;;;12.55;9.07;;;;;;;;;;6324474;28;20052;-72
2023/09/08 05:25:55;;;;;;;13.02;8.50;;;;;;;;;;6338803;28;20040;-73
2023/09/08 05:28:57;;;;;;;12.50;9.48;;;;;;;;;;6314157;28;20047;-74
2023/09/08 05:32:01;;;;;;;15.10;8.57;;;;;;;;;;6327728;28;20035;-67
2023/09/08 05:35:03;;;;;;;14.65;8.88;;;;;;;;;;6332519;28;20051;-67
2023/09/08 05:38:05;;;;;;;11.98;10.23;;;;;;;;;;6328909;28;20039;-65
2023/09/08 05:41:08;;;;;;;12.43;9.82;;;;;;;;;;6322542;28;20063;-65
2023/09/08 05:44:10;;;;;;;12.40;10.85;;;;;;;;;;6322163;28;20051;-65
2023/09/08 05:47:13;;;;;;;14.63;10.57;;;;;;;;;;6322600;28;20726;-63
2023/09/08 05:50:16;;;;;;;12.15;9.82;;;;;;;;;;6316412;28;20560;-70
2023/09/08 05:53:19;;;;;;;11.00;7.18;;;;;;;;;;6309014;28;20043;-68
2023/09/08 05:56:24;;;;;;;15.90;10.20;;;;;;;;;;6323333;28;20039;-69
2023/09/08 05:59:27;;;;;;;14.45;10.48;;;;;;;;;;6330133;28;20050;-69
2023/09/08 06:02:29;;;;;;;14.07;8.88;;;;;;;;;;6330492;28;20039;-76
2023/09/08 06:05:32;;;;;;;9.63;5.78;;;;;;;;;;6337464;28;20126;-72
2023/09/08 06:08:34;;;;;;;10.50;8.40;;;;;;;;;;6329099;28;20066;-73
2023/09/08 06:11:37;;;;;;;8.57;7.72;;;;;;;;;;6325176;28;20699;-73
2023/09/08 06:14:39;;;;;;;9.52;6.03;;;;;;;;;;6333317;28;20040;-71
2023/09/08 06:17:46;;;;;;;10.10;7.75;;;;;;;;;;6320377;28;20047;-72
2023/09/08 06:20:49;;;;;;;8.40;6.82;;;;;;;;;;6330935;28;20072;-72
2023/09/08 06:23:52;;;;;;;6.45;4.57;;;;;;;;;;6325424;28;20077;-73
2023/09/08 06:26:54;;;;;;;10.38;7.43;;;;;;;;;;6330882;28;20032;-72
2023/09/08 06:29:58;;;;;;;8.23;5.35;;;;;;;;;;6329478;28;20628;-72
2023/09/08 06:33:01;;;;;;;9.60;5.68;;;;;;;;;;6323704;28;20830;-65
2023/09/08 06:36:04;;;;;;;9.73;6.70;;;;;;;;;;6326014;28;20044;-66
2023/09/08 06:39:06;;;;;;;6.38;3.78;;;;;;;;;;6323942;28;20039;-66
2023/09/08 06:42:08;;;;;;;7.97;5.93;;;;;;;;;;6328047;28;20044;-66
2023/09/08 06:45:13;;;;;;;8.48;6.07;;;;;;;;;;6333201;28;20863;-66
2023/09/08 06:48:16;;;;;;;8.13;6.72;;;;;;;;;;6326094;28;20047;-66
2023/09/08 06:51:19;;;;;;;8.00;5.85;;;;;;;;;;6334712;28;20051;-67
2023/09/08 06:54:21;;;;;;;11.40;5.47;;;;;;;;;;6323860;28;20040;-67
2023/09/08 06:57:23;;;;;;;4.55;2.83;;;;;;;;;;6329798;28;20047;-69
2023/09/08 07:00:25;;;;;;;9.95;6.25;;;;;;;;;;6317624;28;20129;-70
2023/09/08 07:03:28;;;;;;;9.20;3.92;;;;;;;;;;6318116;28;20454;-70
2023/09/08 07:06:31;;;;;;;5.25;3.33;;;;;;;;;;6323259;28;20044;-71
2023/09/08 07:09:35;;;;;;;6.88;4.32;;;;;;;;;;6332277;28;20437;-69
2023/09/08 07:12:38;;;;;;;4.38;2.70;;;;;;;;;;6334297;28;20095;-70
2023/09/08 07:15:40;;;;;;;7.47;3.35;;;;;;;;;;6334667;28;20048;-69
2023/09/08 07:18:43;;;;;;;7.28;3.30;;;;;;;;;;6328172;28;20056;-69
2023/09/08 07:21:46;;;;;;;6.45;2.45;;;;;;;;;;6336395;28;20027;-69
2023/09/08 07:24:48;;;;;;;4.88;2.55;;;;;;;;;;6330489;28;20066;-70
2023/09/08 07:27:53;;;;;;;8.07;2.72;;;;;;;;;;6330876;28;20131;-70
2023/09/08 07:31:04;;;;;;;4.90;3.40;;;;;;;;;;6329701;28;20665;-69
2023/09/08 07:34:10;;;;;;;5.90;3.70;;;;;;;;;;6322769;28;20051;-71
2023/09/08 07:37:12;;;;;;;5.45;3.22;;;;;;;;;;6335347;28;20066;-70
2023/09/08 07:40:15;;;;;;;6.80;2.83;;;;;;;;;;6323124;28;20067;-70
2023/09/08 07:43:17;;;;;;;6.35;4.30;;;;;;;;;;6323059;28;20174;-70
2023/09/08 07:46:19;;;;;;;4.57;2.78;;;;;;;;;;6307690;28;20074;-69
2023/09/08 07:49:23;;;;;;;4.10;3.08;;;;;;;;;;6331913;28;20039;-68
2023/09/08 07:52:25;;;;;;;6.15;3.50;;;;;;;;;;6327753;28;20533;-69
2023/09/08 07:55:27;;;;;;;5.57;2.95;;;;;;;;;;6321759;28;20044;-67
2023/09/08 07:58:29;;;;;;;5.60;2.53;;;;;;;;;;6333459;28;20044;-69
2023/09/08 08:01:32;;;;;;;5.63;4.10;;;;;;;;;;6327985;28;20562;-69
2023/09/08 08:04:34;;;;;;;7.03;3.40;;;;;;;;;;6328910;28;20044;-75
2023/09/08 08:07:37;;;;;;;8.27;3.35;;;;;;;;;;6320826;28;20047;-72
2023/09/08 08:10:41;;;;;;;5.93;2.60;;;;;;;;;;6325911;28;20035;-72
2023/09/08 08:13:43;;;;;;;4.55;2.30;;;;;;;;;;6318019;28;20058;-71
2023/09/08 08:16:45;;;;;;;9.95;4.72;;;;;;;;;;6324409;28;20046;-67
2023/09/08 08:19:48;;;;;;;7.30;2.83;;;;;;;;;;6332590;28;20040;-78
2023/09/08 08:22:50;;;;;;;4.95;3.00;;;;;;;;;;6327691;28;20040;-78
2023/09/08 08:25:52;;;;;;;6.85;2.85;;;;;;;;;;6302308;28;20051;-77
2023/09/08 08:28:54;;;;;;;7.35;4.30;;;;;;;;;;6313885;28;20134;-78
2023/09/08 08:31:56;;;;;;;4.50;2.63;;;;;;;;;;6324715;28;20115;-77
2023/09/08 08:34:59;;;;;;;4.60;3.25;;;;;;;;;;6326708;28;20054;-77
2023/09/08 08:38:01;;;;;;;5.05;3.20;;;;;;;;;;6294940;28;20044;-67
2023/09/08 08:41:04;;;;;;;5.15;3.25;;;;;;;;;;6319338;28;20039;-64
2023/09/08 08:44:10;;;;;;;6.50;2.47;;;;;;;;;;6325150;28;20411;-82
2023/09/08 08:47:13;;;;;;;4.72;3.08;;;;;;;;;;6328154;28;20039;-81
2023/09/08 08:50:17;;;;;;;6.43;2.80;;;;;;;;;;6314367;28;20534;-82
2023/09/08 08:53:21;;;;;;;7.88;3.22;;;;;;;;;;6322573;28;20047;-82
2023/09/08 08:56:23;;;;;;;4.82;2.65;;;;;;;;;;6292532;28;20039;-82
2023/09/08 08:59:25;;;;;;;6.45;3.00;;;;;;;;;;6322785;28;20055;-83
2023/09/08 09:02:30;;;;;;;7.40;3.17;;;;;;;;;;6295971;28;20046;-83
2023/09/08 09:05:35;;;;;;;6.43;2.95;;;;;;;;;;6302749;28;20530;-73
2023/09/08 09:08:38;;;;;;;4.45;2.20;;;;;;;;;;6335966;28;20044;-69
2023/09/08 09:11:40;;;;;;;6.35;2.35;;;;;;;;;;6318574;28;20807;-70
2023/09/08 09:14:47;;;;;;;4.50;2.47;;;;;;;;;;6328931;28;20047;-70
2023/09/08 09:18:03;;;;;;;11.20;2.97;;;;;;;;;;6330448;28;20112;-69
2023/09/08 09:21:05;;;;;;;4.43;2.05;;;;;;;;;;6328292;28;20108;-69
2023/09/08 09:24:08;;;;;;;6.97;4.43;;;;;;;;;;6328625;28;20819;-69
2023/09/08 09:27:10;;;;;;;4.30;2.35;;;;;;;;;;6324005;28;20104;-69
2023/09/08 09:30:13;;;;;;;5.30;2.95;;;;;;;;;;6321887;28;20054;-69
2023/09/08 09:33:15;;;;;;;5.53;2.85;;;;;;;;;;6332541;28;20059;-69
2023/09/08 09:36:20;;;;;;;4.13;2.33;;;;;;;;;;6322559;28;20059;-69
2023/09/08 09:39:24;;;;;;;10.68;4.28;;;;;;;;;;6319666;28;20836;-69
2023/09/08 09:42:27;;;;;;;9.57;4.13;;;;;;;;;;6328270;28;20139;-70
2023/09/08 09:45:30;;;;;;;10.05;3.58;;;;;;;;;;6321897;28;20040;-70
2023/09/08 09:48:33;;;;;;;9.35;4.53;;;;;;;;;;6321328;28;20703;-69
2023/09/08 09:51:43;;;;;;;5.28;2.95;;;;;;;;;;6322060;28;20048;-70
2023/09/08 09:54:45;;;;;;;4.65;2.53;;;;;;;;;;6330354;28;20180;-70
2023/09/08 09:57:48;;;;;;;5.80;2.88;;;;;;;;;;6317467;28;20186;-69
2023/09/08 10:00:51;;;;;;;5.88;3.00;;;;;;;;;;6327107;28;20055;-70
2023/09/08 10:03:54;;;;;;;9.13;3.03;;;;;;;;;;6318573;28;20047;-69
2023/09/08 10:06:58;;;;;;;6.80;3.72;;;;;;;;;;6325472;28;20537;-70
2023/09/08 10:10:00;;;;;;;5.95;3.08;;;;;;;;;;6320590;28;20105;-69
2023/09/08 10:13:06;;;;;;;5.82;2.75;;;;;;;;;;6331433;28;20137;-69
2023/09/08 10:16:12;;;;;;;9.18;3.10;;;;;;;;;;6333224;28;20078;-81
2023/09/08 10:19:16;;;;;;;6.60;2.65;;;;;;;;;;6334134;28;20052;-79
2023/09/08 10:22:26;;;;;;;5.15;2.42;;;;;;;;;;6318424;28;20040;-79
2023/09/08 10:25:30;;;;;;;8.45;2.80;;;;;;;;;;6306704;28;20075;-79
2023/09/08 10:28:33;;;;;;;6.10;2.25;;;;;;;;;;6315772;28;20036;-79
2023/09/08 10:31:38;;;;;;;4.22;3.17;;;;;;;;;;6343640;28;20121;-80
2023/09/08 10:34:41;;;;;;;7.40;3.17;;;;;;;;;;6340286;28;20126;-80
2023/09/08 10:37:44;;;;;;;6.03;3.35;;;;;;;;;;6316797;28;20051;-80
2023/09/08 10:40:47;;;;;;;5.30;2.97;;;;;;;;;;6310699;28;20058;-80
2023/09/08 10:43:56;;;;;;;7.53;3.10;;;;;;;;;;6321939;28;20093;-78
2023/09/08 10:46:59;;;;;;;7.70;3.78;;;;;;;;;;6325469;28;20043;-82
2023/09/08 10:50:03;;;;;;;6.45;3.30;;;;;;;;;;6326450;28;20052;-78
2023/09/08 10:53:12;;;;;;;4.88;2.83;;;;;;;;;;6312836;28;20040;-80
2023/09/08 10:56:14;;;;;;;5.68;3.13;;;;;;;;;;6329422;28;20043;-80
2023/09/08 10:59:19;;;;;;;5.88;3.15;;;;;;;;;;6305012;28;20094;-80
2023/09/08 11:02:38;;;;;;;6.68;3.40;;;;;;;;;;6338372;28;20048;-80
2023/09/08 11:05:42;;;;;;;4.85;3.83;;;;;;;;;;6321571;28;20426;-81
2023/09/08 11:08:45;;;;;;;5.53;2.72;;;;;;;;;;6335378;28;20127;-81
2023/09/08 11:11:48;;;;;;;5.68;3.28;;;;;;;;;;6322802;28;20160;-81
2023/09/08 11:14:50;;;;;;;5.85;3.22;;;;;;;;;;6330097;28;20732;-81
2023/09/08 11:17:52;;;;;;;6.05;2.30;;;;;;;;;;6327271;28;20162;-82
2023/09/08 11:20:55;;;;;;;4.47;2.35;;;;;;;;;;6332419;28;20036;-81
2023/09/08 11:23:58;;;;;;;5.35;3.05;;;;;;;;;;6310626;28;20158;-81
2023/09/08 11:27:00;;;;;;;5.35;3.10;;;;;;;;;;6306340;28;20047;-81
2023/09/08 11:30:06;;;;;;;10.30;3.08;;;;;;;;;;6322060;28;20050;-81
2023/09/08 11:33:19;;;;;;;5.03;2.90;;;;;;;;;;6304051;28;20139;-80
2023/09/08 11:36:21;;;;;;;6.60;3.33;;;;;;;;;;6313768;28;20055;-79
2023/09/08 11:39:25;;;;;;;6.50;2.80;;;;;;;;;;6315533;28;20043;-79
2023/09/08 11:42:27;;;;;;;4.50;2.63;;;;;;;;;;6307555;28;20090;-79
2023/09/08 11:45:33;;;;;;;5.05;3.72;;;;;;;;;;6321848;28;20136;-79
2023/09/08 11:48:35;;;;;;;6.22;3.95;;;;;;;;;;6324611;28;20130;-79
2023/09/08 11:51:38;;;;;;;5.72;2.88;;;;;;;;;;6311793;28;20036;-79
2023/09/08 11:54:41;;;;;;;4.22;2.58;;;;;;;;;;6325860;28;20050;-78
2023/09/08 11:58:02;;;;;;;4.25;2.60;;;;;;;;;;6311954;28;20059;-79
2023/09/08 12:01:05;;;;;;;7.97;3.65;;;;;;;;;;6326468;28;20051;-78
2023/09/08 12:04:19;;;;;;;6.35;3.35;;;;;;;;;;6307246;28;20067;-78
2023/09/08 12:07:21;;;;;;;6.72;3.03;;;;;;;;;;6334210;28;20525;-79
2023/09/08 12:10:24;;;;;;;5.47;3.38;;;;;;;;;;6305996;28;20540;-78
2023/09/08 12:13:26;;;;;;;5.03;3.28;;;;;;;;;;6309823;28;20042;-78
2023/09/08 12:16:28;;;;;;;5.15;2.83;;;;;;;;;;6322583;28;20136;-78
2023/09/08 12:19:31;;;;;;;10.60;3.63;;;;;;;;;;6323865;28;20047;-79
2023/09/08 12:22:34;;;;;;;6.95;5.88;;;;;;;;;;6325791;28;20568;-78
2023/09/08 12:25:47;;;;;;;10.75;4.13;;;;;;;;;;6311966;28;20521;-78
2023/09/08 12:28:50;;;;;;;4.97;2.55;;;;;;;;;;6293679;28;20059;-79
2023/09/08 12:31:52;;;;;;;4.82;3.63;;;;;;;;;;6326140;28;20028;-78
2023/09/08 12:34:55;;;;;;;6.85;2.83;;;;;;;;;;6310442;28;20048;-78
2023/09/08 12:38:02;;;;;;;8.05;3.47;;;;;;;;;;6322076;28;20100;-78
2023/09/08 12:41:04;;;;;;;4.90;2.47;;;;;;;;;;6301993;28;20047;-79
2023/09/08 12:44:06;;;;;;;4.60;2.53;;;;;;;;;;6326444;28;20506;-78
2023/09/08 12:47:11;;;;;;;12.45;3.97;;;;;;;;;;6324985;28;20081;-76
2023/09/08 12:50:13;;;;;;;6.60;2.85;;;;;;;;;;6331495;28;20055;-68
2023/09/08 12:53:18;;;;;;;6.70;2.92;;;;;;;;;;6328066;28;20051;-80
2023/09/08 12:56:20;;;;;;;6.13;3.28;;;;;;;;;;6298705;28;20129;-79
2023/09/08 12:59:24;;;;;;;4.53;2.67;;;;;;;;;;6329267;27;20051;-79
2023/09/08 13:02:26;;;;;;;7.55;2.75;;;;;;;;;;6326173;28;20044;-78
2023/09/08 13:05:29;;;;;;;6.82;2.38;;;;;;;;;;6332080;28;20056;-79
2023/09/08 13:08:31;;;;;;;6.60;2.45;;;;;;;;;;6312228;28;20044;-79
2023/09/08 13:11:33;;;;;;;4.85;3.13;;;;;;;;;;6329158;28;20093;-79
2023/09/08 13:14:36;;;;;;;4.22;2.35;;;;;;;;;;6327329;28;20221;-79
2023/09/08 13:17:38;;;;;;;9.38;2.88;;;;;;;;;;6304566;28;20051;-79
2023/09/08 13:20:41;;;;;;;5.28;3.35;;;;;;;;;;6317131;28;20521;-80
2023/09/08 13:23:43;;;;;;;3.90;2.38;;;;;;;;;;6324738;28;20071;-80
2023/09/08 13:26:45;;;;;;;5.57;3.17;;;;;;;;;;6327046;28;20059;-79
2023/09/08 13:29:48;;;;;;;4.95;2.88;;;;;;;;;;6328110;28;20581;-79
2023/09/08 13:32:50;;;;;;;8.55;3.25;;;;;;;;;;6323907;28;20244;-78
2023/09/08 13:35:52;;;;;;;5.07;3.70;;;;;;;;;;6298878;28;20055;-80
2023/09/08 13:38:58;;;;;;;;;;;;;;;;;;6327221;28;20043;-78
2023/09/08 13:42:01;;;;;;;4.80;2.80;;;;;;;;;;6325402;28;19958;-80
2023/09/08 13:45:04;;;;;;;7.05;2.75;;;;;;;;;;6312540;28;20123;-77
2023/09/08 13:48:06;;;;;;;6.93;3.00;;;;;;;;;;6328140;28;20515;-74
2023/09/08 13:51:10;;;;;;;6.05;2.80;;;;;;;;;;6325947;28;20047;-73
2023/09/08 13:54:15;;;;;;;4.20;2.75;;;;;;;;;;6335866;28;20127;-73
2023/09/08 13:57:20;;;;;;;;;;;;;;;;;;6328618;28;20051;-72
2023/09/08 14:00:25;;;;;;;5.78;3.70;;;;;;;;;;6325389;28;19951;-73
2023/09/08 14:03:32;;;;;;;5.70;2.88;;;;;;;;;;6324297;28;20036;-72
2023/09/08 14:06:54;;;;;;;5.15;2.88;;;;;;;;;;6324049;28;20063;-71
2023/09/08 14:10:08;;;;;;;6.10;3.25;;;;;;;;;;6320707;28;20437;-73
2023/09/08 14:13:12;;;;;;;6.63;3.05;;;;;;;;;;6326932;28;20046;-73
2023/09/08 14:16:16;;;;;;;5.63;3.30;;;;;;;;;;6325929;28;20040;-73
2023/09/08 14:19:18;;;;;;;5.85;3.22;;;;;;;;;;6325226;28;20036;-73
2023/09/08 14:22:20;;;;;;;6.03;2.90;;;;;;;;;;6325648;28;20036;-65
2023/09/08 14:25:22;;;;;;;5.70;2.63;;;;;;;;;;6327040;28;20047;-69
2023/09/08 14:28:25;;;;;;;6.03;3.17;;;;;;;;;;6332634;28;20047;-69
2023/09/08 14:31:27;;;;;;;6.45;2.63;;;;;;;;;;6327702;28;20047;-78
2023/09/08 14:34:30;;;;;;;7.28;2.40;;;;;;;;;;6329074;28;20050;-69
2023/09/08 14:37:33;;;;;;;5.63;2.67;;;;;;;;;;6321098;28;20054;-67
2023/09/08 14:40:35;;;;;;;8.13;2.33;;;;;;;;;;6331337;28;20044;-68
2023/09/08 14:43:37;;;;;;;4.53;2.75;;;;;;;;;;6326254;28;20594;-68
2023/09/08 14:46:39;;;;;;;7.00;3.00;;;;;;;;;;6323957;28;20830;-68
2023/09/08 14:49:41;;;;;;;9.63;4.93;;;;;;;;;;6327936;28;20146;-68
2023/09/08 14:52:43;;;;;;;6.00;3.22;;;;;;;;;;6331612;28;20068;-68
2023/09/08 14:55:47;;;;;;;8.88;2.83;;;;;;;;;;6326241;28;20169;-65
2023/09/08 14:58:49;;;;;;;5.90;3.22;;;;;;;;;;6327043;28;20048;-70
2023/09/08 15:01:54;;;;;;;6.20;2.85;;;;;;;;;;6326753;28;20078;-69
2023/09/08 15:04:56;;;;;;;7.40;3.25;;;;;;;;;;6325500;28;20837;-68
2023/09/08 15:07:59;;;;;;;6.95;3.92;;;;;;;;;;6336216;28;20039;-68
2023/09/08 15:11:02;;;;;;;4.15;2.70;;;;;;;;;;6325359;28;20044;-68
2023/09/08 15:14:04;;;;;;;5.60;2.83;;;;;;;;;;6331566;27;20526;-68
2023/09/08 15:17:06;;;;;;;7.10;3.05;;;;;;;;;;6326638;28;20180;-69
2023/09/08 15:20:09;;;;;;;11.57;2.97;;;;;;;;;;6334465;28;20044;-69
2023/09/08 15:23:11;;;;;;;7.60;2.72;;;;;;;;;;6329364;28;20551;-70
2023/09/08 15:26:13;;;;;;;5.72;2.92;;;;;;;;;;6333322;28;20818;-70
2023/09/08 15:29:16;;;;;;;7.18;2.47;;;;;;;;;;6325041;28;20047;-69
2023/09/08 15:32:20;;;;;;;5.18;2.67;;;;;;;;;;6323651;28;20040;-70
2023/09/08 15:35:22;;;;;;;6.63;2.80;;;;;;;;;;6320453;28;20131;-69
2023/09/08 15:38:24;;;;;;;6.07;2.47;;;;;;;;;;6333504;28;20041;-70
2023/09/08 15:41:26;;;;;;;4.63;2.65;;;;;;;;;;6327597;28;20047;-68
2023/09/08 15:44:28;;;;;;;5.30;2.70;;;;;;;;;;6329741;28;20044;-69
2023/09/08 15:47:31;;;;;;;4.95;2.50;;;;;;;;;;6323910;28;20151;-68
2023/09/08 15:50:33;;;;;;;7.07;4.50;;;;;;;;;;6331588;28;20564;-68
2023/09/08 15:53:36;;;;;;;4.95;2.33;;;;;;;;;;6319796;28;20127;-68
2023/09/08 15:56:39;;;;;;;6.18;2.95;;;;;;;;;;6321923;28;20056;-68
2023/09/08 15:59:41;;;;;;;4.38;2.45;;;;;;;;;;6326409;28;20047;-68
2023/09/08 16:02:43;;;;;;;5.40;2.47;;;;;;;;;;6325288;28;20036;-68
2023/09/08 16:05:45;;;;;;;4.32;2.60;;;;;;;;;;6335221;28;20039;-68
2023/09/08 16:08:47;;;;;;;4.95;2.50;;;;;;;;;;6322542;28;20572;-68
2023/09/08 16:11:49;;;;;;;4.75;3.00;;;;;;;;;;6330436;28;20047;-68
2023/09/08 16:14:51;;;;;;;6.65;2.75;;;;;;;;;;6324277;28;20055;-68
2023/09/08 16:17:53;;;;;;;5.38;2.53;;;;;;;;;;6325559;28;20050;-68
2023/09/08 16:20:55;;;;;;;5.53;3.00;;;;;;;;;;6321095;28;20077;-69
2023/09/08 16:23:57;;;;;;;4.53;2.28;;;;;;;;;;6334398;28;20087;-68
2023/09/08 16:27:00;;;;;;;3.80;2.15;;;;;;;;;;6319134;28;20526;-68
2023/09/08 16:30:03;;;;;;;4.45;2.58;;;;;;;;;;6333498;28;20640;-69
2023/09/08 16:33:05;;;;;;;5.65;3.08;;;;;;;;;;6324594;28;20077;-68
2023/09/08 16:36:08;;;;;;;6.82;2.58;;;;;;;;;;6323632;28;20526;-69
2023/09/08 16:39:10;;;;;;;4.85;2.80;;;;;;;;;;6327892;28;20043;-68
2023/09/08 16:42:12;;;;;;;4.30;2.83;;;;;;;;;;6335196;28;20140;-69
2023/09/08 16:45:15;;;;;;;6.53;3.00;;;;;;;;;;6329537;28;20054;-69
2023/09/08 16:48:17;;;;;;;5.65;4.45;;;;;;;;;;6320051;28;20419;-69
2023/09/08 16:51:19;;;;;;;5.28;2.63;;;;;;;;;;6321698;28;20055;-69
2023/09/08 16:54:21;;;;;;;4.82;3.85;;;;;;;;;;6332969;28;20150;-69
2023/09/08 16:57:23;;;;;;;4.95;3.03;;;;;;;;;;6330382;28;20293;-69
2023/09/08 17:00:26;;;;;;;4.90;3.28;;;;;;;;;;6323734;28;20050;-69
2023/09/08 17:03:29;;;;;;;4.25;3.20;;;;;;;;;;6336700;28;20047;-69
2023/09/08 17:06:31;;;;;;;6.07;4.85;;;;;;;;;;6324491;28;20056;-69
2023/09/08 17:09:33;;;;;;;5.78;3.67;;;;;;;;;;6335139;28;20040;-69
2023/09/08 17:12:35;;;;;;;6.20;4.63;;;;;;;;;;6333273;27;20090;-68
2023/09/08 17:15:37;;;;;;;6.32;3.10;;;;;;;;;;6331203;28;20043;-68
2023/09/08 17:18:39;;;;;;;6.75;3.42;;;;;;;;;;6335964;28;20702;-69
2023/09/08 17:21:41;;;;;;;6.30;5.00;;;;;;;;;;6335523;28;20768;-68
2023/09/08 17:24:43;;;;;;;5.55;3.90;;;;;;;;;;6333654;28;20482;-69
2023/09/08 17:27:46;;;;;;;6.65;3.53;;;;;;;;;;6334749;28;20048;-69
2023/09/08 17:30:48;;;;;;;7.35;5.00;;;;;;;;;;6333508;28;20807;-69
2023/09/08 17:33:50;;;;;;;6.47;3.35;;;;;;;;;;6311720;28;20146;-69
2023/09/08 17:37:02;;;;;;;4.90;3.22;;;;;;;;;;6334848;28;20048;-69
2023/09/08 17:40:05;;;;;;;6.18;4.13;;;;;;;;;;6330887;28;20051;-69
2023/09/08 17:43:08;;;;;;;7.55;6.68;;;;;;;;;;6332899;28;20764;-69
2023/09/08 17:46:10;;;;;;;5.93;4.97;;;;;;;;;;6333494;28;20070;-69
2023/09/08 17:49:12;;;;;;;7.25;5.45;;;;;;;;;;6323535;28;20047;-69
2023/09/08 17:52:14;;;;;;;7.47;5.63;;;;;;;;;;6330606;28;20047;-69
2023/09/08 17:55:17;;;;;;;7.03;4.60;;;;;;;;;;6323854;28;20047;-64
2023/09/08 17:58:19;;;;;;;7.68;6.38;;;;;;;;;;6314121;28;20036;-64
2023/09/08 18:01:21;;;;;;;7.18;3.97;;;;;;;;;;6306698;28;20038;-65
2023/09/08 18:04:23;;;;;;;14.45;6.47;;;;;;;;;;6319645;28;20526;-66
2023/09/08 18:07:25;;;;;;;7.47;5.25;;;;;;;;;;6317922;28;20051;-65
2023/09/08 18:10:27;;;;;;;8.82;5.35;;;;;;;;;;6321524;28;20043;-68
2023/09/08 18:13:30;;;;;;;8.60;4.65;;;;;;;;;;6327456;28;20744;-64